Spring Hill, California
Current Conditions -  °F | °C
As of 3:00 AM on Friday 31 Oct 2014 (Local Time) from KGOO Reporting Station
Clear Clear  
Wind Chill: 10°   Ceiling: Unl
Heat Index: 10°   Visibility: 10mi
Dew Point:   Wind: 5mph
Humidity: 82%   Direction: 120°ESE
Pressure: 29.96"   Gusts: NA
Location:  39.2183°N, 120.924°W
Report Text: KGOO 311000Z AUTO 12004KT 10SM CLR 10/07 A2996 RMK AO1
Loading
Personal Weather Stations






























Interactive Weather Map
Tropical Storm Tracking
New forecast layout! Learn more

10-Day Weather Forecast

Advertisements
Track Severe Weather on mobile